sensor_id;sensor_type;location;lat;lon;timestamp;pressure;altitude;pressure_sealevel;temperature;humidity
29359;BME280;16347;53.232;6.556;2022-12-18T00:00:22;102827.72;;;-0.77;71.97
29359;BME280;16347;53.232;6.556;2022-12-18T00:02:54;102825.13;;;-0.46;72.15
29359;BME280;16347;53.232;6.556;2022-12-18T00:05:23;102830.03;;;-0.63;71.94
29359;BME280;16347;53.232;6.556;2022-12-18T00:07:51;102835.53;;;-0.69;72.42
29359;BME280;16347;53.232;6.556;2022-12-18T00:10:19;102844.34;;;-0.64;71.91
29359;BME280;16347;53.232;6.556;2022-12-18T00:12:47;102850.22;;;-0.87;72.07
29359;BME280;16347;53.232;6.556;2022-12-18T00:15:15;102844.34;;;-0.64;72.03
29359;BME280;16347;53.232;6.556;2022-12-18T00:17:43;102836.25;;;-0.63;72.16
29359;BME280;16347;53.232;6.556;2022-12-18T00:20:13;102836.50;;;-0.72;71.96
29359;BME280;16347;53.232;6.556;2022-12-18T00:22:40;102846.88;;;-0.60;71.24
29359;BME280;16347;53.232;6.556;2022-12-18T00:25:08;102835.22;;;-0.57;71.62
29359;BME280;16347;53.232;6.556;2022-12-18T04:58:33;102853.72;;;-0.16;59.80
29359;BME280;16347;53.232;6.556;2022-12-18T05:01:02;102855.94;;;-0.31;60.64
29359;BME280;16347;53.232;6.556;2022-12-18T05:03:30;102867.81;;;-0.43;61.13
29359;BME280;16347;53.232;6.556;2022-12-18T05:05:58;102864.50;;;-0.19;60.67
29359;BME280;16347;53.232;6.556;2022-12-18T05:08:26;102861.88;;;-0.20;60.50
29359;BME280;16347;53.232;6.556;2022-12-18T05:10:58;102862.00;;;-0.25;60.46
29359;BME280;16347;53.232;6.556;2022-12-18T05:13:26;102863.16;;;-0.35;60.13
29359;BME280;16347;53.232;6.556;2022-12-18T05:15:56;102867.38;;;-0.26;60.52
29359;BME280;16347;53.232;6.556;2022-12-18T05:18:24;102870.31;;;-0.37;60.51
29359;BME280;16347;53.232;6.556;2022-12-18T05:20:53;102866.81;;;-0.39;60.82
29359;BME280;16347;53.232;6.556;2022-12-18T05:23:23;102869.84;;;-0.19;60.77
29359;BME280;16347;53.232;6.556;2022-12-18T05:25:52;102873.50;;;-0.23;60.31
29359;BME280;16347;53.232;6.556;2022-12-18T05:28:21;102864.69;;;-0.26;59.77
29359;BME280;16347;53.232;6.556;2022-12-18T05:30:49;102866.03;;;-0.42;60.04
29359;BME280;16347;53.232;6.556;2022-12-18T05:33:19;102863.63;;;-0.19;60.11
29359;BME280;16347;53.232;6.556;2022-12-18T05:35:50;102864.31;;;-0.11;59.83
29359;BME280;16347;53.232;6.556;2022-12-18T05:38:18;102868.50;;;-0.35;59.51
29359;BME280;16347;53.232;6.556;2022-12-18T05:40:47;102866.38;;;-0.22;59.82
29359;BME280;16347;53.232;6.556;2022-12-18T05:43:15;102873.00;;;-0.37;59.36
29359;BME280;16347;53.232;6.556;2022-12-18T05:45:48;102863.44;;;-0.45;60.04
29359;BME280;16347;53.232;6.556;2022-12-18T05:48:17;102868.44;;;-0.67;60.27
29359;BME280;16347;53.232;6.556;2022-12-18T05:50:47;102870.09;;;-0.62;60.02
29359;BME280;16347;53.232;6.556;2022-12-18T05:53:18;102878.34;;;-0.72;60.36
29359;BME280;16347;53.232;6.556;2022-12-18T05:55:47;102880.13;;;-0.71;60.42
29359;BME280;16347;53.232;6.556;2022-12-18T05:58:16;102884.25;;;-0.58;60.22
29359;BME280;16347;53.232;6.556;2022-12-18T06:00:45;102893.13;;;-0.58;60.06
29359;BME280;16347;53.232;6.556;2022-12-18T06:03:13;102890.34;;;-0.53;60.22
29359;BME280;16347;53.232;6.556;2022-12-18T06:05:43;102891.66;;;-0.35;59.63
29359;BME280;16347;53.232;6.556;2022-12-18T06:08:13;102897.81;;;-0.32;59.23
29359;BME280;16347;53.232;6.556;2022-12-18T06:10:41;102905.44;;;-0.50;58.87
29359;BME280;16347;53.232;6.556;2022-12-18T06:13:09;102910.69;;;-0.47;59.24
29359;BME280;16347;53.232;6.556;2022-12-18T06:15:38;102906.81;;;-0.34;58.93
29359;BME280;16347;53.232;6.556;2022-12-18T06:18:06;102918.09;;;-0.59;59.19
29359;BME280;16347;53.232;6.556;2022-12-18T06:20:34;102919.53;;;-0.45;59.01
29359;BME280;16347;53.232;6.556;2022-12-18T06:23:03;102924.19;;;-0.54;59.20
29359;BME280;16347;53.232;6.556;2022-12-18T06:25:32;102924.59;;;-0.70;59.71
29359;BME280;16347;53.232;6.556;2022-12-18T06:28:00;102909.97;;;-0.54;59.40
29359;BME280;16347;53.232;6.556;2022-12-18T06:30:28;102915.34;;;-0.56;59.26
29359;BME280;16347;53.232;6.556;2022-12-18T06:32:56;102912.41;;;-0.45;59.00
29359;BME280;16347;53.232;6.556;2022-12-18T06:35:24;102910.72;;;-0.49;59.36
29359;BME280;16347;53.232;6.556;2022-12-18T06:37:52;102896.94;;;-0.32;59.08
29359;BME280;16347;53.232;6.556;2022-12-18T06:40:20;102892.84;;;-0.47;58.77
29359;BME280;16347;53.232;6.556;2022-12-18T06:42:49;102890.53;;;-0.27;58.68
29359;BME280;16347;53.232;6.556;2022-12-18T06:45:17;102886.97;;;-0.26;58.47
29359;BME280;16347;53.232;6.556;2022-12-18T06:47:45;102880.78;;;-0.28;58.27
29359;BME280;16347;53.232;6.556;2022-12-18T06:50:13;102872.00;;;-0.33;57.88
29359;BME280;16347;53.232;6.556;2022-12-18T06:52:41;102873.28;;;-0.47;58.17
29359;BME280;16347;53.232;6.556;2022-12-18T06:55:11;102877.13;;;-0.58;58.50
29359;BME280;16347;53.232;6.556;2022-12-18T06:57:39;102879.25;;;-0.72;58.75
29359;BME280;16347;53.232;6.556;2022-12-18T07:00:09;102866.50;;;-0.61;59.19
29359;BME280;16347;53.232;6.556;2022-12-18T07:02:37;102862.44;;;-0.41;58.70
29359;BME280;16347;53.232;6.556;2022-12-18T07:05:06;102873.84;;;-0.35;58.45
29359;BME280;16347;53.232;6.556;2022-12-18T07:07:36;102864.66;;;-0.25;57.90
29359;BME280;16347;53.232;6.556;2022-12-18T07:10:05;102867.66;;;-0.37;57.83
29359;BME280;16347;53.232;6.556;2022-12-18T07:12:33;102864.94;;;-0.35;57.92
29359;BME280;16347;53.232;6.556;2022-12-18T07:15:01;102861.13;;;-0.27;57.85
29359;BME280;16347;53.232;6.556;2022-12-18T07:17:30;102857.34;;;-0.50;57.76
29359;BME280;16347;53.232;6.556;2022-12-18T07:19:58;102859.34;;;-0.60;58.14
29359;BME280;16347;53.232;6.556;2022-12-18T07:22:26;102855.22;;;-0.73;58.56
29359;BME280;16347;53.232;6.556;2022-12-18T07:24:54;102843.41;;;-0.63;58.67
29359;BME280;16347;53.232;6.556;2022-12-18T07:27:23;102847.66;;;-0.55;58.65
29359;BME280;16347;53.232;6.556;2022-12-18T07:29:51;102843.41;;;-0.63;58.61
29359;BME280;16347;53.232;6.556;2022-12-18T07:32:19;102846.50;;;-0.46;58.87
29359;BME280;16347;53.232;6.556;2022-12-18T07:34:48;102840.00;;;-0.36;58.41
29359;BME280;16347;53.232;6.556;2022-12-18T07:37:16;102847.94;;;-0.33;57.92
29359;BME280;16347;53.232;6.556;2022-12-18T07:39:44;102844.34;;;-0.32;57.96
29359;BME280;16347;53.232;6.556;2022-12-18T07:42:15;102839.13;;;-0.36;57.28
29359;BME280;16347;53.232;6.556;2022-12-18T07:45:07;102849.97;;;-0.42;57.80
29359;BME280;16347;53.232;6.556;2022-12-18T07:47:35;102851.19;;;-0.54;57.79
29359;BME280;16347;53.232;6.556;2022-12-18T07:50:06;102859.00;;;-0.46;57.65
29359;BME280;16347;53.232;6.556;2022-12-18T07:52:34;102845.84;;;-0.54;57.89
29359;BME280;16347;53.232;6.556;2022-12-18T07:55:03;102855.44;;;-0.47;58.08
29359;BME280;16347;53.232;6.556;2022-12-18T07:57:33;102866.53;;;-0.28;58.16
29359;BME280;16347;53.232;6.556;2022-12-18T08:00:17;102866.44;;;-0.24;57.37
29359;BME280;16347;53.232;6.556;2022-12-18T08:02:47;102866.34;;;-0.21;57.49
29359;BME280;16347;53.232;6.556;2022-12-18T08:05:17;102859.25;;;-0.22;57.49
29359;BME280;16347;53.232;6.556;2022-12-18T08:07:45;102866.28;;;-0.19;57.00
29359;BME280;16347;53.232;6.556;2022-12-18T08:10:13;102862.38;;;-0.40;57.48
29359;BME280;16347;53.232;6.556;2022-12-18T08:12:41;102861.31;;;-0.33;57.55
29359;BME280;16347;53.232;6.556;2022-12-18T08:15:09;102847.03;;;-0.32;57.66
29359;BME280;16347;53.232;6.556;2022-12-18T08:17:37;102838.91;;;-0.27;57.76
29359;BME280;16347;53.232;6.556;2022-12-18T08:20:06;102843.19;;;-0.22;57.55
29359;BME280;16347;53.232;6.556;2022-12-18T08:22:36;102841.31;;;-0.18;57.33
29359;BME280;16347;53.232;6.556;2022-12-18T08:25:07;102838.47;;;-0.12;57.12
29359;BME280;16347;53.232;6.556;2022-12-18T08:27:35;102842.56;;;0.01;56.97
29359;BME280;16347;53.232;6.556;2022-12-18T08:30:04;102840.41;;;0.14;57.53
29359;BME280;16347;53.232;6.556;2022-12-18T08:32:33;102839.97;;;0.29;57.54
29359;BME280;16347;53.232;6.556;2022-12-18T08:35:01;102852.97;;;0.42;56.67
29359;BME280;16347;53.232;6.556;2022-12-18T08:37:29;102844.34;;;0.61;57.28
29359;BME280;16347;53.232;6.556;2022-12-18T08:39:58;102853.00;;;0.70;56.48
29359;BME280;16347;53.232;6.556;2022-12-18T08:42:26;102847.22;;;0.84;56.66
29359;BME280;16347;53.232;6.556;2022-12-18T08:45:12;102852.50;;;0.87;55.75
29359;BME280;16347;53.232;6.556;2022-12-18T08:47:40;102857.09;;;0.82;55.86
29359;BME280;16347;53.232;6.556;2022-12-18T08:50:09;102855.19;;;0.85;55.01
29359;BME280;16347;53.232;6.556;2022-12-18T08:52:37;102866.66;;;0.90;54.95
29359;BME280;16347;53.232;6.556;2022-12-18T08:55:08;102867.44;;;0.94;54.79
29359;BME280;16347;53.232;6.556;2022-12-18T08:57:36;102876.53;;;0.88;53.57
29359;BME280;16347;53.232;6.556;2022-12-18T09:00:06;102872.75;;;0.95;53.99
29359;BME280;16347;53.232;6.556;2022-12-18T09:02:34;102875.31;;;0.98;53.96
29359;BME280;16347;53.232;6.556;2022-12-18T09:05:03;102879.69;;;1.01;53.64
29359;BME280;16347;53.232;6.556;2022-12-18T09:07:31;102874.31;;;1.02;53.65
29359;BME280;16347;53.232;6.556;2022-12-18T09:09:59;102873.41;;;1.02;53.69
29359;BME280;16347;53.232;6.556;2022-12-18T09:12:29;102876.94;;;1.04;53.57
29359;BME280;16347;53.232;6.556;2022-12-18T09:14:58;102874.88;;;1.12;53.67
29359;BME280;16347;53.232;6.556;2022-12-18T09:17:26;102863.16;;;1.16;54.15
29359;BME280;16347;53.232;6.556;2022-12-18T09:19:54;102867.69;;;1.14;53.70
29359;BME280;16347;53.232;6.556;2022-12-18T09:22:21;102866.81;;;1.14;52.74
29359;BME280;16347;53.232;6.556;2022-12-18T09:24:49;102864.94;;;1.16;54.10
29359;BME280;16347;53.232;6.556;2022-12-18T09:27:17;102860.31;;;1.21;54.24
29359;BME280;16347;53.232;6.556;2022-12-18T09:29:47;102863.50;;;1.32;54.35
29359;BME280;16347;53.232;6.556;2022-12-18T09:32:15;102870.63;;;1.33;53.49
29359;BME280;16347;53.232;6.556;2022-12-18T09:34:48;102857.91;;;1.39;52.91
29359;BME280;16347;53.232;6.556;2022-12-18T09:37:16;102850.63;;;1.43;53.49
29359;BME280;16347;53.232;6.556;2022-12-18T09:39:44;102836.31;;;1.44;52.95
29359;BME280;16347;53.232;6.556;2022-12-18T09:42:20;102836.47;;;1.39;52.84
29359;BME280;16347;53.232;6.556;2022-12-18T09:44:52;102840.84;;;1.42;52.80
29359;BME280;16347;53.232;6.556;2022-12-18T09:47:23;102844.59;;;1.36;52.81
29359;BME280;16347;53.232;6.556;2022-12-18T09:49:55;102849.63;;;1.21;52.76
29359;BME280;16347;53.232;6.556;2022-12-18T09:52:28;102849.50;;;1.24;53.27
29359;BME280;16347;53.232;6.556;2022-12-18T09:54:59;102841.69;;;1.44;53.40
29359;BME280;16347;53.232;6.556;2022-12-18T09:57:29;102828.06;;;1.24;53.01
29359;BME280;16347;53.232;6.556;2022-12-18T10:00:04;102820.22;;;1.18;53.11
29359;BME280;16347;53.232;6.556;2022-12-18T10:02:37;102836.25;;;1.19;53.58
29359;BME280;16347;53.232;6.556;2022-12-18T10:05:07;102835.91;;;1.30;53.85
29359;BME280;16347;53.232;6.556;2022-12-18T10:07:49;102832.44;;;1.26;53.74
29359;BME280;16347;53.232;6.556;2022-12-18T10:10:25;102833.13;;;1.33;53.41
29359;BME280;16347;53.232;6.556;2022-12-18T10:12:58;102826.94;;;1.31;53.71
29359;BME280;16347;53.232;6.556;2022-12-18T10:15:36;102823.84;;;1.43;54.24
29359;BME280;16347;53.232;6.556;2022-12-18T10:18:26;102816.03;;;1.35;53.41
29359;BME280;16347;53.232;6.556;2022-12-18T10:21:03;102816.16;;;1.32;53.71
29359;BME280;16347;53.232;6.556;2022-12-18T10:23:41;102816.50;;;1.48;53.93
29359;BME280;16347;53.232;6.556;2022-12-18T10:26:14;102817.34;;;1.50;53.78
29359;BME280;16347;53.232;6.556;2022-12-18T10:28:43;102812.69;;;1.55;53.74
29359;BME280;16347;53.232;6.556;2022-12-18T10:31:16;102805.53;;;1.55;53.54
29359;BME280;16347;53.232;6.556;2022-12-18T10:33:44;102814.56;;;1.53;53.98
29359;BME280;16347;53.232;6.556;2022-12-18T10:36:13;102797.06;;;1.68;54.42
29359;BME280;16347;53.232;6.556;2022-12-18T10:38:41;102795.06;;;1.73;53.89
29359;BME280;16347;53.232;6.556;2022-12-18T10:41:24;102785.72;;;1.84;53.84
29359;BME280;16347;53.232;6.556;2022-12-18T10:44:16;102784.78;;;1.85;53.66
29359;BME280;16347;53.232;6.556;2022-12-18T10:46:48;102781.50;;;1.77;52.99
29359;BME280;16347;53.232;6.556;2022-12-18T10:49:22;102776.38;;;1.71;53.11
29359;BME280;16347;53.232;6.556;2022-12-18T10:51:51;102767.38;;;1.72;53.53
29359;BME280;16347;53.232;6.556;2022-12-18T10:54:33;102756.63;;;1.74;53.86
29359;BME280;16347;53.232;6.556;2022-12-18T10:57:14;102754.34;;;1.86;54.18
29359;BME280;16347;53.232;6.556;2022-12-18T10:59:51;102751.44;;;1.92;54.07
29359;BME280;16347;53.232;6.556;2022-12-18T11:02:27;102751.44;;;1.92;53.98
29359;BME280;16347;53.232;6.556;2022-12-18T11:04:58;102752.16;;;1.97;53.95
29359;BME280;16347;53.232;6.556;2022-12-18T11:07:47;102746.56;;;2.03;54.07
29359;BME280;16347;53.232;6.556;2022-12-18T11:10:17;102749.50;;;1.96;53.90
29359;BME280;16347;53.232;6.556;2022-12-18T11:12:46;102742.09;;;2.02;53.71
29359;BME280;16347;53.232;6.556;2022-12-18T11:15:16;102738.38;;;2.06;53.39
29359;BME280;16347;53.232;6.556;2022-12-18T11:17:50;102726.22;;;1.98;53.10
29359;BME280;16347;53.232;6.556;2022-12-18T11:20:23;102726.41;;;1.92;53.31
29359;BME280;16347;53.232;6.556;2022-12-18T11:22:56;102731.44;;;1.78;52.98
29359;BME280;16347;53.232;6.556;2022-12-18T11:25:28;102727.22;;;1.71;52.98
29359;BME280;16347;53.232;6.556;2022-12-18T11:28:01;102722.78;;;1.70;53.39
29359;BME280;16347;53.232;6.556;2022-12-18T11:30:30;102723.56;;;1.73;53.96
29359;BME280;16347;53.232;6.556;2022-12-18T11:33:03;102726.88;;;1.80;54.18
29359;BME280;16347;53.232;6.556;2022-12-18T11:35:40;102725.09;;;1.80;54.38
29359;BME280;16347;53.232;6.556;2022-12-18T11:38:18;102716.69;;;1.89;54.14
29359;BME280;16347;53.232;6.556;2022-12-18T11:40:53;102713.88;;;1.92;54.35
29359;BME280;16347;53.232;6.556;2022-12-18T11:43:29;102721.88;;;1.94;53.90
29359;BME280;16347;53.232;6.556;2022-12-18T11:46:02;102728.94;;;1.96;54.05
29359;BME280;16347;53.232;6.556;2022-12-18T11:48:37;102710.44;;;1.89;54.24
29359;BME280;16347;53.232;6.556;2022-12-18T11:51:12;102704.16;;;1.90;53.86
29359;BME280;16347;53.232;6.556;2022-12-18T11:53:53;102684.34;;;1.94;53.69
29359;BME280;16347;53.232;6.556;2022-12-18T11:56:29;102681.41;;;2.00;53.65
29359;BME280;16347;53.232;6.556;2022-12-18T11:59:09;102686.69;;;2.01;53.41
29359;BME280;16347;53.232;6.556;2022-12-18T12:01:48;102681.81;;;1.89;53.62
29359;BME280;16347;53.232;6.556;2022-12-18T12:04:40;102680.66;;;1.96;54.31
29359;BME280;16347;53.232;6.556;2022-12-18T12:07:20;102679.00;;;1.92;54.50
29359;BME280;16347;53.232;6.556;2022-12-18T12:09:57;102661.28;;;1.88;53.82
29359;BME280;16347;53.232;6.556;2022-12-18T12:12:37;102644.72;;;2.00;54.45
29359;BME280;16347;53.232;6.556;2022-12-18T12:15:23;102636.31;;;2.10;54.29
29359;BME280;16347;53.232;6.556;2022-12-18T12:17:57;102643.44;;;2.11;54.71
29359;BME280;16347;53.232;6.556;2022-12-18T12:20:44;102636.19;;;2.13;54.36
29359;BME280;16347;53.232;6.556;2022-12-18T12:23:20;102629.88;;;2.14;54.53
29359;BME280;16347;53.232;6.556;2022-12-18T12:25:59;102639.31;;;2.24;54.55
29359;BME280;16347;53.232;6.556;2022-12-18T12:28:44;102625.38;;;2.36;54.27
29359;BME280;16347;53.232;6.556;2022-12-18T12:31:23;102620.78;;;2.39;54.48
29359;BME280;16347;53.232;6.556;2022-12-18T12:33:57;102607.59;;;2.33;54.15
29359;BME280;16347;53.232;6.556;2022-12-18T12:36:34;102605.19;;;2.27;54.28
29359;BME280;16347;53.232;6.556;2022-12-18T12:39:11;102598.38;;;2.40;54.51
29359;BME280;16347;53.232;6.556;2022-12-18T12:41:44;102602.97;;;2.37;53.84
29359;BME280;16347;53.232;6.556;2022-12-18T12:44:40;102586.44;;;2.26;53.60
29359;BME280;16347;53.232;6.556;2022-12-18T12:47:14;102574.47;;;2.34;54.09
29359;BME280;16347;53.232;6.556;2022-12-18T12:49:45;102571.56;;;2.39;54.43
29359;BME280;16347;53.232;6.556;2022-12-18T12:52:27;102561.41;;;2.47;54.28
29359;BME280;16347;53.232;6.556;2022-12-18T12:54:58;102567.78;;;2.44;53.82
29359;BME280;16347;53.232;6.556;2022-12-18T12:57:32;102557.03;;;2.44;53.67
29359;BME280;16347;53.232;6.556;2022-12-18T13:00:05;102550.53;;;2.50;53.49
29359;BME280;16347;53.232;6.556;2022-12-18T13:02:39;102557.50;;;2.54;53.55
29359;BME280;16347;53.232;6.556;2022-12-18T13:05:18;102560.19;;;2.54;53.27
29359;BME280;16347;53.232;6.556;2022-12-18T13:07:53;102546.59;;;2.58;53.42
29359;BME280;16347;53.232;6.556;2022-12-18T13:10:42;102538.78;;;2.52;52.83
29359;BME280;16347;53.232;6.556;2022-12-18T13:13:11;102551.22;;;2.55;53.03
29359;BME280;16347;53.232;6.556;2022-12-18T13:15:44;102542.16;;;2.78;52.68
29359;BME280;16347;53.232;6.556;2022-12-18T13:18:18;102552.44;;;2.68;52.45
29359;BME280;16347;53.232;6.556;2022-12-18T13:20:49;102542.53;;;2.69;52.60
29359;BME280;16347;53.232;6.556;2022-12-18T13:23:29;102527.16;;;2.72;52.74
29359;BME280;16347;53.232;6.556;2022-12-18T13:25:59;102524.28;;;2.77;52.24
29359;BME280;16347;53.232;6.556;2022-12-18T13:28:56;102529.31;;;2.84;52.43
29359;BME280;16347;53.232;6.556;2022-12-18T13:34:35;102511.63;;;2.79;51.72
29359;BME280;16347;53.232;6.556;2022-12-18T13:43:24;102509.81;;;2.79;51.59
29359;BME280;16347;53.232;6.556;2022-12-18T13:46:05;102510.38;;;2.87;51.76
29359;BME280;16347;53.232;6.556;2022-12-18T13:48:37;102514.41;;;2.77;50.92
29359;BME280;16347;53.232;6.556;2022-12-18T13:51:09;102507.00;;;2.82;50.78
29359;BME280;16347;53.232;6.556;2022-12-18T13:53:42;102504.41;;;2.81;50.84
29359;BME280;16347;53.232;6.556;2022-12-18T13:56:15;102495.53;;;2.79;50.55
29359;BME280;16347;53.232;6.556;2022-12-18T13:59:04;102500.66;;;2.85;50.69
29359;BME280;16347;53.232;6.556;2022-12-18T14:01:33;102495.59;;;2.77;50.28
29359;BME280;16347;53.232;6.556;2022-12-18T14:04:11;102496.53;;;2.76;50.68
29359;BME280;16347;53.232;6.556;2022-12-18T14:06:44;102492.97;;;2.76;50.71
29359;BME280;16347;53.232;6.556;2022-12-18T14:09:14;102490.97;;;2.81;50.86
29359;BME280;16347;53.232;6.556;2022-12-18T14:11:48;102484.72;;;2.80;51.40
29359;BME280;16347;53.232;6.556;2022-12-18T14:14:19;102483.66;;;2.84;50.46
29359;BME280;16347;53.232;6.556;2022-12-18T14:16:47;102480.09;;;2.84;50.95
29359;BME280;16347;53.232;6.556;2022-12-18T14:19:17;102478.06;;;2.89;51.68
29359;BME280;16347;53.232;6.556;2022-12-18T14:21:47;102483.78;;;2.81;51.33
29359;BME280;16347;53.232;6.556;2022-12-18T14:24:17;102488.69;;;2.92;51.50
29359;BME280;16347;53.232;6.556;2022-12-18T14:26:48;102485.91;;;2.93;51.61
29359;BME280;16347;53.232;6.556;2022-12-18T14:29:23;102475.69;;;3.01;51.80
29359;BME280;16347;53.232;6.556;2022-12-18T14:32:06;102473.44;;;3.11;51.16
29359;BME280;16347;53.232;6.556;2022-12-18T14:34:43;102472.53;;;3.12;51.33
29359;BME280;16347;53.232;6.556;2022-12-18T14:37:12;102460.81;;;3.13;50.79
29359;BME280;16347;53.232;6.556;2022-12-18T14:39:52;102455.13;;;3.19;50.47
29359;BME280;16347;53.232;6.556;2022-12-18T14:42:24;102457.13;;;3.16;50.82
29359;BME280;16347;53.232;6.556;2022-12-18T14:45:34;102452.44;;;3.19;50.68
29359;BME280;16347;53.232;6.556;2022-12-18T14:48:15;102450.00;;;3.15;50.60
29359;BME280;16347;53.232;6.556;2022-12-18T14:50:56;102438.50;;;3.11;50.15
29359;BME280;16347;53.232;6.556;2022-12-18T14:53:34;102430.59;;;3.08;49.62
29359;BME280;16347;53.232;6.556;2022-12-18T14:56:10;102428.13;;;3.03;49.54
29359;BME280;16347;53.232;6.556;2022-12-18T15:02:26;102418.59;;;2.78;49.70
29359;BME280;16347;53.232;6.556;2022-12-18T15:05:03;102433.84;;;2.77;50.21
29359;BME280;16347;53.232;6.556;2022-12-18T15:07:43;102432.03;;;2.78;50.00
29359;BME280;16347;53.232;6.556;2022-12-18T15:10:13;102424.91;;;2.77;50.08
29359;BME280;16347;53.232;6.556;2022-12-18T15:12:43;102418.31;;;2.84;50.81
29359;BME280;16347;53.232;6.556;2022-12-18T15:15:45;102425.69;;;2.79;50.80
29359;BME280;16347;53.232;6.556;2022-12-18T15:18:16;102424.91;;;2.77;50.82
29359;BME280;16347;53.232;6.556;2022-12-18T15:20:48;102418.66;;;2.76;50.74
29359;BME280;16347;53.232;6.556;2022-12-18T15:23:19;102417.56;;;2.80;51.07
29359;BME280;16347;53.232;6.556;2022-12-18T15:25:55;102401.91;;;2.90;50.96
29359;BME280;16347;53.232;6.556;2022-12-18T15:28:25;102395.50;;;2.92;51.17
29359;BME280;16347;53.232;6.556;2022-12-18T15:31:02;102394.34;;;2.98;51.58
29359;BME280;16347;53.232;6.556;2022-12-18T15:33:35;102379.91;;;3.00;51.17
29359;BME280;16347;53.232;6.556;2022-12-18T15:36:08;102380.69;;;3.02;50.93
29359;BME280;16347;53.232;6.556;2022-12-18T15:38:37;102377.06;;;3.03;50.95
29359;BME280;16347;53.232;6.556;2022-12-18T15:41:05;102377.00;;;3.05;51.28
29359;BME280;16347;53.232;6.556;2022-12-18T15:43:40;102370.88;;;2.83;50.76
29359;BME280;16347;53.232;6.556;2022-12-18T15:46:12;102365.75;;;2.97;51.17
29359;BME280;16347;53.232;6.556;2022-12-18T15:48:44;102352.41;;;2.95;51.29
29359;BME280;16347;53.232;6.556;2022-12-18T15:51:15;102340.06;;;2.91;51.38
29359;BME280;16347;53.232;6.556;2022-12-18T15:53:46;102320.28;;;2.92;51.31
29359;BME280;16347;53.232;6.556;2022-12-18T15:56:16;102308.59;;;2.93;51.04
29359;BME280;16347;53.232;6.556;2022-12-18T15:59:04;102302.44;;;2.91;51.49
29359;BME280;16347;53.232;6.556;2022-12-18T16:01:32;102293.56;;;2.89;51.40
29359;BME280;16347;53.232;6.556;2022-12-18T16:04:10;102291.91;;;2.87;51.30
29359;BME280;16347;53.232;6.556;2022-12-18T16:06:39;102289.22;;;2.87;51.65
29359;BME280;16347;53.232;6.556;2022-12-18T16:09:28;102291.13;;;2.85;51.60
29359;BME280;16347;53.232;6.556;2022-12-18T16:12:00;102288.59;;;2.82;51.39
29359;BME280;16347;53.232;6.556;2022-12-18T16:14:29;102292.13;;;2.64;51.88
29359;BME280;16347;53.232;6.556;2022-12-18T16:17:00;102276.31;;;2.76;52.21
29359;BME280;16347;53.232;6.556;2022-12-18T16:19:30;102272.75;;;2.76;52.41
29359;BME280;16347;53.232;6.556;2022-12-18T16:21:59;102269.84;;;2.80;52.48
29359;BME280;16347;53.232;6.556;2022-12-18T16:24:32;102268.56;;;2.70;51.92
29359;BME280;16347;53.232;6.556;2022-12-18T16:27:01;102267.81;;;2.67;52.25
29359;BME280;16347;53.232;6.556;2022-12-18T16:29:29;102277.78;;;2.65;52.14
29359;BME280;16347;53.232;6.556;2022-12-18T16:31:59;102268.19;;;2.59;51.81
29359;BME280;16347;53.232;6.556;2022-12-18T16:34:30;102269.34;;;2.53;52.18
29359;BME280;16347;53.232;6.556;2022-12-18T16:37:03;102273.56;;;2.59;52.85
29359;BME280;16347;53.232;6.556;2022-12-18T16:39:32;102279.34;;;2.69;52.31
29359;BME280;16347;53.232;6.556;2022-12-18T16:42:01;102274.88;;;2.50;52.62
29359;BME280;16347;53.232;6.556;2022-12-18T16:44:32;102255.94;;;2.53;52.59
29359;BME280;16347;53.232;6.556;2022-12-18T16:47:00;102282.00;;;2.51;52.98
29359;BME280;16347;53.232;6.556;2022-12-18T16:49:30;102264.13;;;2.50;53.29
29359;BME280;16347;53.232;6.556;2022-12-18T16:52:02;102262.25;;;2.52;52.94
29359;BME280;16347;53.232;6.556;2022-12-18T16:54:30;102254.56;;;2.45;52.60
29359;BME280;16347;53.232;6.556;2022-12-18T16:56:59;102261.75;;;2.44;53.25
29359;BME280;16347;53.232;6.556;2022-12-18T16:59:28;102256.88;;;2.34;53.13
29359;BME280;16347;53.232;6.556;2022-12-18T17:01:56;102263.13;;;2.34;53.24
29359;BME280;16347;53.232;6.556;2022-12-18T17:04:24;102257.38;;;2.04;53.68
29359;BME280;16347;53.232;6.556;2022-12-18T17:06:54;102253.72;;;2.05;54.38
29359;BME280;16347;53.232;6.556;2022-12-18T17:09:23;102253.31;;;2.15;54.67
29359;BME280;16347;53.232;6.556;2022-12-18T17:11:52;102245.03;;;2.19;54.48
29359;BME280;16347;53.232;6.556;2022-12-18T17:14:22;102242.00;;;2.27;54.30
29359;BME280;16347;53.232;6.556;2022-12-18T17:16:51;102230.00;;;2.15;54.83
29359;BME280;16347;53.232;6.556;2022-12-18T17:19:39;102215.47;;;2.21;54.90
29359;BME280;16347;53.232;6.556;2022-12-18T17:22:08;102210.53;;;2.30;55.25
29359;BME280;16347;53.232;6.556;2022-12-18T17:24:36;102207.19;;;2.44;54.70
29359;BME280;16347;53.232;6.556;2022-12-18T17:27:05;102212.91;;;2.36;54.95
29359;BME280;16347;53.232;6.556;2022-12-18T17:29:35;102213.19;;;2.49;54.38
29359;BME280;16347;53.232;6.556;2022-12-18T17:32:11;102210.97;;;2.40;54.26
29359;BME280;16347;53.232;6.556;2022-12-18T17:34:39;102200.72;;;2.29;54.26
29359;BME280;16347;53.232;6.556;2022-12-18T17:37:08;102195.31;;;2.31;54.66
29359;BME280;16347;53.232;6.556;2022-12-18T17:39:37;102187.59;;;2.42;54.72
29359;BME280;16347;53.232;6.556;2022-12-18T17:42:05;102187.31;;;2.29;54.57
29359;BME280;16347;53.232;6.556;2022-12-18T17:44:42;102177.66;;;2.44;54.09
29359;BME280;16347;53.232;6.556;2022-12-18T17:47:10;102185.78;;;2.42;53.87
29359;BME280;16347;53.232;6.556;2022-12-18T17:49:39;102178.97;;;2.35;53.96
29359;BME280;16347;53.232;6.556;2022-12-18T17:52:09;102176.38;;;2.34;54.17
29359;BME280;16347;53.232;6.556;2022-12-18T17:54:37;102181.06;;;2.29;54.35
29359;BME280;16347;53.232;6.556;2022-12-18T17:57:08;102189.44;;;2.04;54.86
29359;BME280;16347;53.232;6.556;2022-12-18T17:59:37;102190.75;;;2.14;54.72
29359;BME280;16347;53.232;6.556;2022-12-18T18:02:05;102192.91;;;2.25;54.51
29359;BME280;16347;53.232;6.556;2022-12-18T18:04:34;102191.81;;;2.10;54.95
29359;BME280;16347;53.232;6.556;2022-12-18T18:07:03;102183.13;;;2.24;54.97